createdAt,value
2022-10-25T00:01:31.312Z,3.58
2022-10-25T00:03:58.858Z,3.97
2022-10-25T00:06:25.641Z,3.63
2022-10-25T00:08:52.579Z,3.65
2022-10-25T00:11:28.758Z,2.90
2022-10-25T00:13:59.403Z,3.40
2022-10-25T00:16:32.227Z,3.70
2022-10-25T00:18:59.027Z,3.90
2022-10-25T00:21:26.310Z,3.25
2022-10-25T00:23:53.573Z,3.58
2022-10-25T00:26:21.176Z,3.63
2022-10-25T00:28:48.363Z,3.85
2022-10-25T00:31:17.553Z,3.97
2022-10-25T00:33:45.559Z,3.42
2022-10-25T00:36:22.108Z,3.60
2022-10-25T00:38:49.423Z,3.67
2022-10-25T00:41:21.030Z,4.35
2022-10-25T00:43:50.307Z,4.10
2022-10-25T00:46:20.525Z,4.78
2022-10-25T00:49:14.303Z,4.85
2022-10-25T00:51:59.735Z,4.20
2022-10-25T00:54:33.186Z,4.25
2022-10-25T00:57:06.173Z,4.68
2022-10-25T00:59:33.014Z,4.90
2022-10-25T01:02:00.674Z,4.57
2022-10-25T01:04:29.899Z,5.18
2022-10-25T01:06:57.635Z,5.15
2022-10-25T01:09:28.207Z,5.65
2022-10-25T01:11:55.359Z,4.70
2022-10-25T01:14:23.088Z,4.65
2022-10-25T01:17:14.757Z,4.47
2022-10-25T01:19:59.592Z,4.97
2022-10-25T01:22:26.375Z,4.43
2022-10-25T01:25:24.209Z,4.50
2022-10-25T01:27:53.969Z,4.40
2022-10-25T01:30:53.463Z,4.68
2022-10-25T01:33:37.087Z,4.18
2022-10-25T01:36:22.403Z,4.38
2022-10-25T01:39:11.201Z,4.53
2022-10-25T01:42:16.740Z,5.60
2022-10-25T01:44:46.117Z,7.00
2022-10-25T01:47:25.118Z,6.07
2022-10-25T01:50:04.610Z,7.03
2022-10-25T01:52:31.394Z,7.32
2022-10-25T01:54:58.123Z,7.03
2022-10-25T01:57:57.081Z,7.15
2022-10-25T02:00:24.376Z,7.15
2022-10-25T02:03:18.858Z,6.80
2022-10-25T02:05:58.041Z,7.07
2022-10-25T02:08:58.676Z,6.80
2022-10-25T02:11:33.398Z,6.28
2022-10-25T02:14:27.313Z,6.50
2022-10-25T02:17:08.423Z,6.70
2022-10-25T02:19:44.846Z,7.60
2022-10-25T02:22:14.516Z,6.47
2022-10-25T02:24:46.022Z,7.72
2022-10-25T02:27:14.459Z,6.32
2022-10-25T02:29:42.928Z,6.05
2022-10-25T02:32:09.988Z,6.22
2022-10-25T02:34:36.942Z,6.55
2022-10-25T02:37:03.694Z,6.55
2022-10-25T02:39:31.732Z,5.95
2022-10-25T02:42:02.210Z,5.72
2022-10-25T02:44:29.270Z,5.60
2022-10-25T02:46:56.111Z,6.10
2022-10-25T02:49:22.991Z,5.55
2022-10-25T02:54:21.711Z,5.32
2022-10-25T02:56:52.386Z,5.05
2022-10-25T02:59:19.907Z,5.95
2022-10-25T03:01:47.233Z,5.60
2022-10-25T03:04:14.055Z,6.00
2022-10-25T03:06:40.861Z,6.20
2022-10-25T03:09:07.594Z,10.15
2022-10-25T03:11:34.555Z,7.40
2022-10-25T03:14:01.296Z,7.45
2022-10-25T03:16:28.135Z,6.55
2022-10-25T03:18:58.083Z,6.60
2022-10-25T03:21:25.649Z,6.10
2022-10-25T03:23:53.183Z,6.60
2022-10-25T03:26:20.196Z,6.93
2022-10-25T03:28:47.266Z,5.55
2022-10-25T03:31:16.884Z,5.88
2022-10-25T03:33:44.031Z,4.90
2022-10-25T03:36:10.966Z,5.72
2022-10-25T03:38:37.752Z,5.80
2022-10-25T03:41:05.149Z,5.85
2022-10-25T03:43:32.283Z,5.85
2022-10-25T03:45:59.219Z,5.95
2022-10-25T03:48:26.175Z,6.30
2022-10-25T03:50:54.351Z,6.82
2022-10-25T03:53:21.671Z,5.72
2022-10-25T03:55:49.860Z,5.82
2022-10-25T03:58:17.579Z,5.85
2022-10-25T04:00:44.496Z,6.05
2022-10-25T04:03:11.692Z,5.40
2022-10-25T04:05:38.611Z,5.65
2022-10-25T04:08:05.655Z,6.07
2022-10-25T04:10:32.490Z,5.50
2022-10-25T04:12:59.302Z,6.18
2022-10-25T04:15:26.202Z,5.72
2022-10-25T04:17:53.702Z,6.43
2022-10-25T04:20:21.360Z,6.35
2022-10-25T04:22:56.356Z,5.82
2022-10-25T04:25:26.115Z,5.60
2022-10-25T04:27:52.933Z,5.88
2022-10-25T04:30:20.100Z,5.88
2022-10-25T04:32:47.174Z,5.72
2022-10-25T04:35:14.358Z,5.30
2022-10-25T04:37:41.089Z,5.10
2022-10-25T04:40:08.996Z,5.70
2022-10-25T04:42:36.102Z,5.45
2022-10-25T04:45:03.160Z,6.20
2022-10-25T04:47:33.485Z,4.93
2022-10-25T04:50:00.717Z,8.30
2022-10-25T04:52:29.886Z,6.50
2022-10-25T04:54:57.143Z,5.07
2022-10-25T04:57:25.281Z,5.88
2022-10-25T04:59:52.738Z,5.65
2022-10-25T05:02:19.625Z,18.05
2022-10-25T05:04:46.484Z,22.23
2022-10-25T05:07:13.256Z,9.38
2022-10-25T05:09:42.665Z,9.00
2022-10-25T05:12:12.112Z,8.77
2022-10-25T05:14:38.876Z,7.28
2022-10-25T05:17:05.765Z,5.85
2022-10-25T05:19:32.536Z,5.65
2022-10-25T05:21:59.450Z,5.82
2022-10-25T05:24:26.987Z,6.30
2022-10-25T05:26:53.747Z,5.97
2022-10-25T05:29:20.715Z,5.72
2022-10-25T05:31:47.462Z,6.18
2022-10-25T05:34:14.267Z,5.78
2022-10-25T05:36:41.054Z,5.70
2022-10-25T05:39:07.929Z,5.80
2022-10-25T05:41:37.022Z,5.43
2022-10-25T05:44:05.472Z,4.93
2022-10-25T05:46:32.579Z,5.40
2022-10-25T05:49:00.281Z,4.70
2022-10-25T05:51:35.256Z,5.25
2022-10-25T05:54:23.347Z,4.35
2022-10-25T05:56:50.124Z,4.72
2022-10-25T05:59:17.150Z,4.35
2022-10-25T06:01:46.402Z,4.93
2022-10-25T06:04:14.690Z,6.07
2022-10-25T06:06:43.531Z,5.05
2022-10-25T06:09:11.142Z,5.22
2022-10-25T06:11:39.078Z,5.10
2022-10-25T06:14:07.112Z,5.07
2022-10-25T06:16:34.367Z,4.80
2022-10-25T06:19:01.325Z,4.57
2022-10-25T06:21:29.473Z,4.97
2022-10-25T06:23:56.682Z,4.63
2022-10-25T06:26:27.120Z,4.75
2022-10-25T06:28:57.122Z,5.22
2022-10-25T06:31:24.762Z,4.10
2022-10-25T06:33:51.778Z,4.68
2022-10-25T06:36:24.206Z,4.32
2022-10-25T06:38:51.311Z,4.60
2022-10-25T06:41:24.907Z,5.13
2022-10-25T06:43:52.035Z,4.80
2022-10-25T06:46:31.718Z,6.22
2022-10-25T06:48:59.918Z,5.30
2022-10-25T06:51:28.824Z,4.70
2022-10-25T06:53:57.744Z,5.35
2022-10-25T06:56:26.098Z,5.10
2022-10-25T06:58:53.506Z,5.50
2022-10-25T07:01:22.783Z,4.93
2022-10-25T07:03:50.898Z,4.95
2022-10-25T07:06:21.856Z,5.35
2022-10-25T07:09:01.382Z,4.68
2022-10-25T07:11:31.583Z,5.15
2022-10-25T07:14:00.377Z,5.72
2022-10-25T07:16:28.356Z,5.57
2022-10-25T07:19:03.990Z,5.65
2022-10-25T07:21:32.888Z,6.07
2022-10-25T07:23:59.614Z,6.07
2022-10-25T07:26:35.439Z,6.30
2022-10-25T07:29:04.253Z,5.82
2022-10-25T07:31:41.465Z,6.22
2022-10-25T07:34:11.439Z,6.78
2022-10-25T07:36:38.491Z,5.70
2022-10-25T07:39:05.323Z,5.70
2022-10-25T07:41:32.142Z,5.50
2022-10-25T07:43:58.864Z,7.43
2022-10-25T07:46:28.619Z,6.30
2022-10-25T07:48:55.371Z,7.93
2022-10-25T07:51:22.254Z,9.98
2022-10-25T07:53:49.963Z,9.68
2022-10-25T07:56:23.363Z,7.22
2022-10-25T07:58:54.122Z,9.98
2022-10-25T08:01:27.458Z,6.75
2022-10-25T08:03:55.250Z,6.50
2022-10-25T08:06:24.921Z,5.35
2022-10-25T08:08:52.031Z,6.10
2022-10-25T08:11:19.366Z,6.13
2022-10-25T08:13:49.651Z,5.20
2022-10-25T08:16:16.468Z,4.90
2022-10-25T08:18:44.047Z,5.40
2022-10-25T08:21:10.821Z,5.40
2022-10-25T08:23:37.557Z,5.00
2022-10-25T08:26:04.303Z,5.28
2022-10-25T08:28:31.755Z,5.35
2022-10-25T08:31:00.702Z,4.65
2022-10-25T08:33:28.224Z,5.55
2022-10-25T08:35:55.005Z,5.20
2022-10-25T08:38:21.858Z,4.97
2022-10-25T08:41:06.850Z,5.47
2022-10-25T08:44:01.255Z,5.35
2022-10-25T08:46:48.266Z,5.38
2022-10-25T08:49:22.253Z,6.55
2022-10-25T08:51:50.694Z,5.32
2022-10-25T08:54:22.486Z,5.18
2022-10-25T08:57:10.639Z,4.88
2022-10-25T08:59:45.848Z,4.93
2022-10-25T09:02:34.277Z,5.10
2022-10-25T09:05:01.313Z,5.00
2022-10-25T09:08:07.446Z,4.45
2022-10-25T09:11:21.079Z,5.25
2022-10-25T09:14:33.803Z,4.93
2022-10-25T09:17:48.262Z,5.40
2022-10-25T09:20:31.831Z,5.22
2022-10-25T09:23:11.532Z,5.07
2022-10-25T09:25:54.131Z,4.93
2022-10-25T09:28:36.558Z,5.20
2022-10-25T09:31:04.847Z,5.47
2022-10-25T09:33:33.264Z,4.88
2022-10-25T09:36:00.339Z,4.95
2022-10-25T09:38:45.376Z,5.03
2022-10-25T09:41:21.196Z,4.70
2022-10-25T09:44:46.103Z,3.85
2022-10-25T09:47:40.794Z,4.05
2022-10-25T09:50:22.050Z,3.83
2022-10-25T09:53:08.815Z,3.90
2022-10-25T09:55:57.776Z,3.97
2022-10-25T09:58:26.469Z,4.38
2022-10-25T10:00:57.199Z,3.33
2022-10-25T10:03:30.822Z,3.63
2022-10-25T10:06:03.085Z,3.53
2022-10-25T10:08:35.219Z,3.67
2022-10-25T10:11:04.789Z,3.43
2022-10-25T10:13:41.156Z,3.90
2022-10-25T10:16:35.485Z,3.30
2022-10-25T10:19:20.989Z,3.58
2022-10-25T10:21:52.627Z,3.33
2022-10-25T10:24:42.629Z,3.78
2022-10-25T10:27:13.874Z,3.60
2022-10-25T10:30:00.536Z,3.88
2022-10-25T10:32:33.523Z,3.63
2022-10-25T10:37:30.361Z,3.60
2022-10-25T10:40:01.680Z,3.70
2022-10-25T10:42:37.211Z,3.63
2022-10-25T10:45:09.901Z,3.72
2022-10-25T10:47:57.989Z,3.70
2022-10-25T10:50:32.486Z,3.65
2022-10-25T10:53:21.547Z,3.42
2022-10-25T10:55:52.665Z,3.17
2022-10-25T10:58:28.258Z,3.33
2022-10-25T11:01:01.326Z,3.03
2022-10-25T11:03:59.190Z,3.30
2022-10-25T11:06:32.171Z,3.28
2022-10-25T11:09:17.805Z,2.88
2022-10-25T11:12:03.665Z,3.00
2022-10-25T11:14:30.430Z,2.63
2022-10-25T11:17:27.780Z,2.95
2022-10-25T11:19:57.605Z,2.70
2022-10-25T11:22:48.956Z,4.50
2022-10-25T11:25:34.170Z,5.00
2022-10-25T11:28:22.559Z,2.95
2022-10-25T11:31:17.586Z,2.60
2022-10-25T11:33:45.797Z,2.72
2022-10-25T11:36:32.195Z,2.20
2022-10-25T11:39:24.546Z,2.53
2022-10-25T11:42:08.679Z,2.03
2022-10-25T11:44:51.109Z,2.60
2022-10-25T11:47:54.692Z,2.00
2022-10-25T11:51:07.510Z,1.73
2022-10-25T11:53:43.498Z,2.30
2022-10-25T11:56:46.595Z,2.15
2022-10-25T12:00:02.307Z,2.15
2022-10-25T12:02:46.717Z,1.80
2022-10-25T12:05:35.762Z,2.60
2022-10-25T12:08:58.449Z,1.50
2022-10-25T12:11:31.128Z,1.90
2022-10-25T12:14:06.236Z,1.80
2022-10-25T12:16:36.486Z,1.63
2022-10-25T12:19:19.390Z,2.78
2022-10-25T12:22:01.846Z,3.78
2022-10-25T12:24:43.257Z,3.92
2022-10-25T12:27:11.711Z,3.33
2022-10-25T12:29:45.166Z,3.50
2022-10-25T12:32:22.173Z,1.80
2022-10-25T12:34:53.643Z,2.63
2022-10-25T12:37:47.470Z,2.40
2022-10-25T12:40:21.266Z,3.50
2022-10-25T12:42:55.211Z,2.15
2022-10-25T12:45:39.053Z,1.83
2022-10-25T12:48:40.111Z,1.92
2022-10-25T12:51:40.686Z,1.70
2022-10-25T12:54:39.097Z,1.65
2022-10-25T12:57:45.935Z,2.30
2022-10-25T13:00:21.840Z,2.33
2022-10-25T13:04:00.903Z,2.30
2022-10-25T13:06:38.265Z,2.30
2022-10-25T13:09:09.735Z,2.78
2022-10-25T13:12:05.244Z,3.30
2022-10-25T13:14:34.931Z,2.25
2022-10-25T13:17:16.975Z,2.45
2022-10-25T13:20:00.276Z,1.90
2022-10-25T13:25:08.608Z,2.38
2022-10-25T13:27:36.925Z,2.25
2022-10-25T13:30:06.673Z,2.33
2022-10-25T13:32:41.985Z,2.00
2022-10-25T13:35:20.948Z,2.10
2022-10-25T13:38:20.068Z,2.05
2022-10-25T13:41:18.787Z,1.75
2022-10-25T13:44:02.867Z,2.10
2022-10-25T13:46:37.353Z,2.50
2022-10-25T13:49:33.907Z,2.60
2022-10-25T13:52:05.432Z,2.28
2022-10-25T13:54:48.585Z,1.90
2022-10-25T13:57:50.874Z,2.20
2022-10-25T14:00:41.241Z,2.08
2022-10-25T14:03:13.039Z,1.88
2022-10-25T14:05:55.174Z,1.90
2022-10-25T14:08:43.903Z,2.22
2022-10-25T14:11:20.782Z,2.00
2022-10-25T14:14:05.167Z,2.03
2022-10-25T14:17:00.029Z,2.00
2022-10-25T14:19:41.231Z,2.42
2022-10-25T14:22:34.397Z,2.08
2022-10-25T14:25:23.868Z,1.77
2022-10-25T14:28:25.417Z,2.08
2022-10-25T14:31:20.051Z,2.08
2022-10-25T14:33:55.239Z,1.98
2022-10-25T14:36:30.867Z,2.65
2022-10-25T14:39:17.421Z,2.42
2022-10-25T14:41:57.516Z,1.63
2022-10-25T14:44:44.650Z,1.95
2022-10-25T14:47:32.979Z,2.22
2022-10-25T14:50:00.355Z,1.80
2022-10-25T14:52:30.390Z,1.88
2022-10-25T14:55:03.438Z,1.77
2022-10-25T15:00:04.521Z,3.50
2022-10-25T15:02:40.246Z,2.55
2022-10-25T15:05:17.219Z,2.35
2022-10-25T15:07:46.897Z,2.78
2022-10-25T15:10:42.517Z,2.22
2022-10-25T15:13:26.489Z,2.92
2022-10-25T15:15:53.502Z,2.92
2022-10-25T15:18:30.901Z,2.85
2022-10-25T15:21:18.430Z,2.58
2022-10-25T15:24:18.055Z,2.83
2022-10-25T15:27:03.530Z,5.10
2022-10-25T15:29:42.635Z,4.07
2022-10-25T15:32:19.479Z,4.13
2022-10-25T15:34:55.878Z,4.18
2022-10-25T15:37:24.884Z,4.20
2022-10-25T15:39:54.153Z,3.97
2022-10-25T15:42:24.202Z,4.00
2022-10-25T15:44:50.986Z,4.22
2022-10-25T15:47:31.439Z,19.75
2022-10-25T15:49:59.014Z,15.20
2022-10-25T15:52:26.556Z,10.15
2022-10-25T15:54:53.830Z,7.75
2022-10-25T15:57:20.803Z,7.20
2022-10-25T15:59:47.606Z,4.80
2022-10-25T16:02:28.547Z,4.80
2022-10-25T16:04:55.563Z,4.82
2022-10-25T16:07:23.114Z,4.47
2022-10-25T16:09:49.850Z,4.70
2022-10-25T16:12:27.377Z,5.82
2022-10-25T16:14:54.149Z,5.15
2022-10-25T16:17:20.927Z,4.88
2022-10-25T16:19:47.747Z,5.18
2022-10-25T16:22:14.571Z,4.47
2022-10-25T16:24:41.474Z,4.70
2022-10-25T16:27:12.423Z,4.20
2022-10-25T16:29:39.170Z,4.13
2022-10-25T16:32:06.246Z,4.93
2022-10-25T16:34:33.072Z,5.85
2022-10-25T16:36:59.869Z,11.32
2022-10-25T16:39:26.697Z,13.38
2022-10-25T16:41:55.400Z,10.27
2022-10-25T16:44:22.119Z,9.05
2022-10-25T16:46:48.892Z,8.02
2022-10-25T16:49:15.935Z,7.88
2022-10-25T16:51:44.107Z,11.75
2022-10-25T16:54:11.858Z,12.35
2022-10-25T16:56:39.526Z,9.88
2022-10-25T16:59:07.671Z,10.05
2022-10-25T17:01:38.062Z,9.75
2022-10-25T17:04:09.613Z,10.00
2022-10-25T17:06:41.147Z,10.85
2022-10-25T17:09:08.752Z,8.98
2022-10-25T17:11:36.266Z,10.32
2022-10-25T17:14:03.691Z,10.43
2022-10-25T17:16:30.522Z,11.65
2022-10-25T17:18:57.368Z,20.65
2022-10-25T17:21:24.141Z,14.35
2022-10-25T17:23:50.904Z,14.23
2022-10-25T17:26:17.815Z,23.58
2022-10-25T17:28:44.906Z,22.67
2022-10-25T17:31:14.026Z,17.33
2022-10-25T17:33:42.375Z,15.00
2022-10-25T17:36:13.548Z,13.98
2022-10-25T17:38:41.682Z,14.98
2022-10-25T17:41:09.614Z,15.30
2022-10-25T17:43:39.038Z,11.65
2022-10-25T17:46:09.563Z,12.18
2022-10-25T17:48:36.752Z,13.98
2022-10-25T17:51:07.024Z,19.17
2022-10-25T17:53:34.266Z,18.70
2022-10-25T17:56:18.288Z,19.33
2022-10-25T17:58:47.418Z,17.90
2022-10-25T18:01:18.875Z,18.13
2022-10-25T18:03:45.949Z,16.77
2022-10-25T18:06:16.302Z,15.73
2022-10-25T18:08:43.150Z,12.07
2022-10-25T18:11:22.176Z,9.35
2022-10-25T18:14:09.343Z,9.23
2022-10-25T18:16:36.457Z,8.00
2022-10-25T18:19:05.392Z,13.60
2022-10-25T18:21:32.803Z,11.02
2022-10-25T18:24:03.263Z,13.25
2022-10-25T18:26:30.537Z,12.15
2022-10-25T18:28:58.631Z,11.85
2022-10-25T18:31:27.086Z,10.00
2022-10-25T18:34:03.909Z,9.50
2022-10-25T18:36:31.950Z,8.95
2022-10-25T18:38:59.370Z,34.17
2022-10-25T18:41:30.963Z,36.85
2022-10-25T18:43:58.456Z,32.75
2022-10-25T18:46:29.322Z,13.32
2022-10-25T18:48:56.524Z,18.77
2022-10-25T18:51:26.818Z,6.45
2022-10-25T18:54:02.236Z,5.68
2022-10-25T18:56:30.565Z,6.20
2022-10-25T18:58:58.906Z,7.35
2022-10-25T19:01:32.512Z,7.82
2022-10-25T19:04:02.021Z,6.35
2022-10-25T19:06:29.550Z,6.63
2022-10-25T19:08:56.650Z,5.47
2022-10-25T19:11:23.727Z,6.10
2022-10-25T19:13:55.460Z,5.40
2022-10-25T19:16:23.951Z,4.95
2022-10-25T19:18:50.826Z,5.38
2022-10-25T19:21:18.799Z,4.85
2022-10-25T19:23:46.975Z,5.32
2022-10-25T19:26:19.725Z,6.13
2022-10-25T19:28:48.123Z,11.38
2022-10-25T19:31:17.326Z,8.35
2022-10-25T19:33:48.969Z,8.52
2022-10-25T19:36:17.324Z,8.07
2022-10-25T19:38:50.455Z,7.20
2022-10-25T19:43:47.356Z,7.00
2022-10-25T19:46:15.377Z,7.85
2022-10-25T19:48:42.677Z,8.85
2022-10-25T19:51:19.093Z,12.73
2022-10-25T19:53:46.869Z,9.40
2022-10-25T19:56:17.860Z,9.60
2022-10-25T19:58:45.130Z,9.15
2022-10-25T20:01:11.974Z,5.38
2022-10-25T20:03:40.758Z,4.90
2022-10-25T20:06:12.290Z,6.43
2022-10-25T20:08:40.796Z,4.85
2022-10-25T20:11:10.174Z,3.55
2022-10-25T20:13:37.053Z,3.40
2022-10-25T20:16:04.886Z,3.50
2022-10-25T20:18:38.662Z,3.65
2022-10-25T20:21:21.496Z,4.50
2022-10-25T20:23:57.346Z,3.53
2022-10-25T20:26:27.532Z,3.10
2022-10-25T20:29:00.523Z,2.85
2022-10-25T20:31:30.950Z,3.13
2022-10-25T20:33:58.231Z,2.70
2022-10-25T20:36:25.878Z,2.72
2022-10-25T20:38:53.180Z,2.75
2022-10-25T20:41:27.472Z,3.13
2022-10-25T20:44:00.071Z,3.10
2022-10-25T20:46:28.283Z,3.63
2022-10-25T20:48:55.358Z,3.70
2022-10-25T20:51:22.189Z,3.80
2022-10-25T20:53:49.034Z,5.45
2022-10-25T20:56:17.906Z,4.13
2022-10-25T20:58:45.126Z,4.10
2022-10-25T21:01:12.489Z,4.93
2022-10-25T21:03:40.327Z,5.32
2022-10-25T21:06:10.438Z,5.25
2022-10-25T21:08:37.932Z,5.45
2022-10-25T21:11:09.249Z,6.30
2022-10-25T21:13:37.369Z,5.25
2022-10-25T21:16:13.565Z,4.53
2022-10-25T21:18:42.205Z,4.55
2022-10-25T21:21:19.946Z,4.78
2022-10-25T21:23:48.003Z,4.88
2022-10-25T21:26:15.670Z,4.50
2022-10-25T21:28:42.857Z,4.47
2022-10-25T21:31:14.591Z,4.20
2022-10-25T21:33:51.112Z,3.47
2022-10-25T21:36:20.113Z,3.70
2022-10-25T21:38:47.188Z,3.88
2022-10-25T21:41:20.741Z,3.95
2022-10-25T21:43:49.593Z,4.10
2022-10-25T21:46:19.616Z,3.65
2022-10-25T21:48:47.979Z,4.00
2022-10-25T21:51:15.911Z,3.95
2022-10-25T21:53:43.428Z,4.32
2022-10-25T21:56:19.699Z,3.97
2022-10-25T21:58:49.771Z,4.03
2022-10-25T22:01:22.399Z,4.55
2022-10-25T22:03:49.427Z,4.40
2022-10-25T22:06:19.770Z,5.43
2022-10-25T22:08:48.284Z,4.65
2022-10-25T22:11:18.835Z,4.50
2022-10-25T22:13:47.908Z,4.28
2022-10-25T22:16:17.953Z,4.18
2022-10-25T22:18:54.306Z,4.90
2022-10-25T22:21:21.938Z,5.35
2022-10-25T22:23:48.920Z,5.07
2022-10-25T22:26:18.805Z,4.68
2022-10-25T22:28:46.655Z,5.53
2022-10-25T22:31:16.730Z,4.57
2022-10-25T22:33:44.944Z,4.15
2022-10-25T22:36:18.169Z,4.47
2022-10-25T22:38:46.022Z,4.65
2022-10-25T22:41:25.004Z,5.07
2022-10-25T22:43:52.044Z,4.80
2022-10-25T22:46:31.183Z,4.22
2022-10-25T22:49:00.011Z,4.85
2022-10-25T22:51:28.382Z,4.10
2022-10-25T22:53:55.534Z,4.28
2022-10-25T22:56:25.590Z,3.67
2022-10-25T22:58:56.190Z,4.22
2022-10-25T23:01:30.267Z,5.07
2022-10-25T23:03:59.542Z,4.70
2022-10-25T23:06:30.384Z,4.55
2022-10-25T23:09:00.494Z,5.30
2022-10-25T23:11:31.094Z,4.43
2022-10-25T23:13:58.692Z,3.95
2022-10-25T23:16:26.520Z,4.05
2022-10-25T23:18:53.846Z,5.00
2022-10-25T23:21:26.775Z,5.45
2022-10-25T23:23:54.913Z,4.82
2022-10-25T23:26:33.122Z,4.75
2022-10-25T23:29:00.740Z,5.13
2022-10-25T23:31:29.845Z,5.15
2022-10-25T23:33:59.695Z,5.63
2022-10-25T23:36:30.510Z,5.25
2022-10-25T23:38:58.396Z,4.93
2022-10-25T23:41:25.167Z,4.85
2022-10-25T23:43:52.119Z,4.88
2022-10-25T23:46:19.447Z,5.13
2022-10-25T23:48:46.668Z,5.47
2022-10-25T23:51:17.230Z,5.95
2022-10-25T23:53:44.082Z,5.15
2022-10-25T23:56:13.541Z,5.05
2022-10-25T23:58:40.870Z,4.95
